Time;durP1;ratioP1;P1;durP2;ratioP2;P2;SDS_P1;SDS_P2;PMS_P1;PMS_P2;Temp;Humidity;BMP_temperature;BMP_pressure;BME280_temperature;BME280_humidity;BME280_pressure;Samples;Min_cycle;Max_cycle;Signal;HPM_P1;HPM_P2
2022/01/08 00:03:18;;;;;;;21.25;12.10;;;;;;;0.75;85.46;99820.47;8430290;34;20242;-75
2022/01/08 00:08:21;;;;;;;25.15;12.60;;;;;;;0.88;84.77;99819.84;8432213;34;20457;-74
2022/01/08 00:13:24;;;;;;;22.90;11.80;;;;;;;0.92;85.13;99819.63;8433440;34;20444;-74
2022/01/08 00:18:29;;;;;;;26.80;13.32;;;;;;;0.92;85.35;99824.09;8433138;34;20423;-73
2022/01/08 00:23:32;;;;;;;28.48;13.80;;;;;;;0.37;86.04;99839.03;8435090;34;20189;-73
2022/01/08 00:28:35;;;;;;;30.00;14.52;;;;;;;-0.04;86.25;99825.13;8424057;34;20212;-74
2022/01/08 00:33:40;;;;;;;30.30;13.18;;;;;;;0.12;85.76;99817.38;8429128;34;20512;-73
2022/01/08 00:38:43;;;;;;;29.70;15.63;;;;;;;0.25;85.70;99809.69;8428764;34;20995;-75
2022/01/08 00:43:46;;;;;;;36.20;16.92;;;;;;;0.16;86.45;99811.88;8419966;34;20503;-74
2022/01/08 00:48:51;;;;;;;36.35;17.25;;;;;;;0.19;86.09;99810.84;8415159;34;20894;-73
2022/01/08 00:53:54;;;;;;;35.72;16.90;;;;;;;0.08;86.83;99799.94;8415658;34;20146;-76
2022/01/08 00:58:57;;;;;;;33.08;15.32;;;;;;;-0.01;86.37;99806.50;8411630;34;20236;-73
2022/01/08 01:04:01;;;;;;;37.65;18.10;;;;;;;0.10;86.32;99809.50;8414758;34;20201;-74
2022/01/08 01:09:04;;;;;;;36.03;16.45;;;;;;;0.11;86.27;99810.34;8415436;34;20536;-73
2022/01/08 01:14:07;;;;;;;37.25;17.83;;;;;;;0.12;86.70;99806.81;8413065;34;20596;-73
2022/01/08 01:19:12;;;;;;;42.33;18.80;;;;;;;0.17;85.96;99802.16;8411939;34;20585;-74
2022/01/08 01:24:19;;;;;;;40.97;18.20;;;;;;;0.05;86.57;99808.84;8413666;34;20241;-73
2022/01/08 01:29:32;;;;;;;33.23;17.53;;;;;;;0.12;86.72;99804.16;8412106;34;20452;-73
2022/01/08 01:50:39;;;;;;;43.15;20.50;;;;;;;0.36;85.76;99800.34;8412595;34;20217;-75
2022/01/08 01:55:44;;;;;;;42.95;19.10;;;;;;;0.08;87.39;99823.72;8410410;34;20435;-75
2022/01/08 02:00:50;;;;;;;41.72;20.25;;;;;;;0.24;87.28;99823.84;8415227;34;20296;-74
2022/01/08 02:05:54;;;;;;;43.40;21.67;;;;;;;0.22;87.26;99823.06;8426663;34;20546;-75
2022/01/08 02:10:58;;;;;;;45.53;19.98;;;;;;;0.41;86.60;99813.31;8423596;34;20430;-75
2022/01/08 02:16:01;;;;;;;45.33;21.63;;;;;;;0.57;86.38;99808.16;8414060;34;21013;-74
2022/01/08 02:21:05;;;;;;;48.33;22.20;;;;;;;0.38;87.01;99809.06;8421981;34;20606;-74
2022/01/08 02:26:12;;;;;;;44.67;21.98;;;;;;;0.65;86.55;99810.44;8427383;34;21032;-74
2022/01/08 02:31:23;;;;;;;46.58;20.45;;;;;;;0.34;87.04;99815.41;8415899;34;20463;-75
2022/01/08 02:36:27;;;;;;;50.25;20.75;;;;;;;0.56;86.15;99820.53;8414876;34;20692;-74
2022/01/08 02:41:30;;;;;;;39.83;19.10;;;;;;;0.52;86.24;99829.53;8415656;34;20640;-75
2022/01/08 02:46:33;;;;;;;36.30;16.25;;;;;;;0.39;86.75;99816.06;8415149;34;20296;-74
2022/01/08 02:51:37;;;;;;;41.47;20.58;;;;;;;0.14;85.93;99828.72;8413887;34;20304;-74
2022/01/08 02:56:41;;;;;;;40.95;20.83;;;;;;;0.08;87.80;99819.31;8415230;34;20520;-73
2022/01/08 03:01:45;;;;;;;46.13;23.03;;;;;;;0.33;86.82;99824.28;8414159;34;20531;-75
2022/01/08 03:06:49;;;;;;;42.42;20.10;;;;;;;0.30;87.14;99829.72;8416382;34;20508;-74
2022/01/08 03:11:52;;;;;;;42.90;20.92;;;;;;;0.36;86.11;99826.78;8434110;28;20626;-74
2022/01/08 03:16:55;;;;;;;43.80;21.27;;;;;;;0.38;85.91;99830.22;8469884;34;20153;-75
2022/01/08 03:22:03;;;;;;;50.43;21.90;;;;;;;0.49;85.67;99816.44;8473910;34;20477;-74
2022/01/08 03:27:06;;;;;;;37.03;17.13;;;;;;;0.19;86.19;99831.13;8467731;34;20153;-74
2022/01/08 03:32:09;;;;;;;38.63;18.30;;;;;;;0.22;86.23;99830.97;8464845;34;20656;-74
2022/01/08 03:37:14;;;;;;;41.85;17.77;;;;;;;0.26;85.49;99825.50;8465712;34;20465;-74
2022/01/08 03:42:17;;;;;;;43.40;19.35;;;;;;;0.28;84.77;99813.06;8465303;34;21062;-74
2022/01/08 03:47:31;;;;;;;40.17;19.83;;;;;;;0.25;85.00;99802.66;8465409;34;20485;-74
2022/01/08 03:52:35;;;;;;;35.05;15.82;;;;;;;0.42;84.51;99806.28;8470779;34;20176;-74
2022/01/08 03:57:38;;;;;;;41.67;18.67;;;;;;;0.53;84.48;99820.69;8471172;34;20689;-76
2022/01/08 04:02:42;;;;;;;38.70;17.77;;;;;;;0.59;84.09;99812.44;8469057;34;20515;-75
2022/01/08 04:07:46;;;;;;;39.42;18.40;;;;;;;0.45;84.25;99808.78;8471611;34;20146;-75
2022/01/08 04:12:53;;;;;;;40.63;19.85;;;;;;;0.60;84.32;99813.28;8470407;34;20431;-75
2022/01/08 04:17:57;;;;;;;43.20;19.20;;;;;;;0.21;85.32;99821.34;8471362;34;20423;-75
2022/01/08 04:23:02;;;;;;;33.00;16.70;;;;;;;0.32;84.75;99825.19;8471664;34;20320;-75
2022/01/08 04:28:05;;;;;;;40.28;20.17;;;;;;;0.52;84.83;99824.25;8470608;34;20240;-74
2022/01/08 04:33:08;;;;;;;40.95;20.00;;;;;;;0.63;84.59;99839.56;8470345;34;20547;-73
2022/01/08 04:38:13;;;;;;;40.47;20.30;;;;;;;0.46;84.83;99852.75;8471000;34;20134;-74
2022/01/08 04:43:16;;;;;;;45.28;20.25;;;;;;;0.01;86.18;99857.47;8465853;34;20440;-73
2022/01/08 04:48:19;;;;;;;42.85;18.45;;;;;;;0.04;86.55;99856.47;8464760;34;20529;-74
2022/01/08 04:53:27;;;;;;;46.40;20.98;;;;;;;0.28;85.66;99867.72;8460771;34;20532;-73
2022/01/08 04:58:30;;;;;;;48.47;21.75;;;;;;;0.37;85.19;99854.91;8460991;34;20244;-73
2022/01/08 05:03:33;;;;;;;41.00;19.60;;;;;;;-0.10;86.74;99851.81;8465799;34;20149;-74
2022/01/08 05:08:38;;;;;;;35.50;16.45;;;;;;;-0.15;87.16;99859.09;8467755;34;21037;-75
2022/01/08 05:13:43;;;;;;;45.38;21.38;;;;;;;-0.39;88.82;99855.75;8465501;34;20156;-74
2022/01/08 05:18:47;;;;;;;45.70;22.98;;;;;;;-0.07;87.33;99857.81;8460579;34;20434;-74
2022/01/08 05:23:53;;;;;;;47.28;23.50;;;;;;;-0.12;87.46;99858.97;8458147;34;20160;-74
2022/01/08 05:28:56;;;;;;;50.10;22.80;;;;;;;0.15;86.53;99862.97;8459136;34;20414;-74
2022/01/08 05:33:59;;;;;;;44.63;22.43;;;;;;;0.02;86.47;99871.53;8460335;34;20860;-74
2022/01/08 05:39:04;;;;;;;33.88;17.80;;;;;;;-0.10;87.18;99880.88;8465206;33;20502;-74
2022/01/08 05:44:07;;;;;;;44.93;20.73;;;;;;;-0.21;87.10;99893.69;8463964;34;20538;-74
2022/01/08 05:49:11;;;;;;;42.93;21.17;;;;;;;-0.11;87.37;99895.88;8457510;34;20427;-74
2022/01/08 05:54:15;;;;;;;36.73;17.63;;;;;;;-0.11;86.64;99895.88;8460319;34;20149;-74
2022/01/08 05:59:19;;;;;;;45.67;23.20;;;;;;;-0.15;87.02;99888.13;8459376;34;20538;-73
2022/01/08 06:04:22;;;;;;;36.60;18.40;;;;;;;0.01;86.32;99891.81;8462878;34;20319;-74
2022/01/08 06:09:27;;;;;;;50.07;21.40;;;;;;;0.01;86.13;99885.66;8467123;34;20496;-74
2022/01/08 06:14:30;;;;;;;41.42;20.70;;;;;;;-0.19;86.93;99895.34;8461610;34;20141;-73
2022/01/08 06:19:33;;;;;;;36.10;15.18;;;;;;;-0.34;86.96;99896.00;8457621;34;20248;-74
2022/01/08 06:24:37;;;;;;;52.33;20.50;;;;;;;-0.06;86.18;99898.28;8457490;34;20455;-75
2022/01/08 06:29:41;;;;;;;39.00;16.93;;;;;;;-0.44;86.96;99907.88;8456807;34;20146;-75
2022/01/08 06:34:45;;;;;;;40.70;16.15;;;;;;;-0.34;85.89;99898.66;8461269;34;20521;-75
2022/01/08 06:39:50;;;;;;;39.83;17.57;;;;;;;-0.24;85.30;99905.25;8465670;34;20150;-75
2022/01/08 06:44:53;;;;;;;38.53;19.98;;;;;;;-0.07;84.88;99902.72;8467259;34;20533;-75
2022/01/08 06:49:56;;;;;;;39.45;18.73;;;;;;;-0.19;84.74;99918.22;8467492;34;20587;-75
2022/01/08 06:55:00;;;;;;;43.67;20.02;;;;;;;-0.21;85.02;99925.38;8466724;34;20436;-75
2022/01/08 07:00:05;;;;;;;29.50;15.87;;;;;;;-0.57;86.08;99924.25;8463061;33;20415;-75
2022/01/08 07:05:10;;;;;;;33.27;17.23;;;;;;;-0.57;86.15;99926.88;8418211;34;20538;-75
2022/01/08 07:10:14;;;;;;;33.83;15.67;;;;;;;-0.77;86.94;99930.38;8410173;34;20655;-75
2022/01/08 07:15:17;;;;;;;39.65;19.15;;;;;;;-0.40;85.58;99927.94;8411034;34;20538;-75
2022/01/08 07:20:21;;;;;;;39.63;20.17;;;;;;;-0.37;85.25;99935.72;8466118;34;20521;-75
2022/01/08 07:25:25;;;;;;;42.55;20.65;;;;;;;-0.22;85.11;99944.75;8447626;34;20142;-75
2022/01/08 07:30:28;;;;;;;44.97;20.87;;;;;;;-0.46;85.61;99951.97;8470641;34;20425;-74
2022/01/08 07:35:32;;;;;;;31.15;15.98;;;;;;;-0.32;86.06;99952.25;8473068;34;20533;-75
2022/01/08 07:40:36;;;;;;;37.60;16.93;;;;;;;-0.26;85.57;99956.41;8470435;34;20517;-75
2022/01/08 07:45:39;;;;;;;41.78;19.38;;;;;;;-0.29;85.89;99962.66;8464434;34;20823;-74
2022/01/08 07:50:42;;;;;;;44.78;19.00;;;;;;;-0.19;85.85;99958.72;8429843;34;21063;-75
2022/01/08 07:55:47;;;;;;;39.42;21.15;;;;;;;-0.18;85.18;99949.84;8411893;34;20442;-75
2022/01/08 08:00:53;;;;;;;40.88;20.23;;;;;;;-0.32;85.86;99957.50;8448924;34;20291;-75
2022/01/08 08:05:56;;;;;;;40.97;20.07;;;;;;;-0.10;84.84;99973.28;8443436;34;20142;-76
2022/01/08 08:11:00;;;;;;;45.58;22.27;;;;;;;0.02;84.71;99961.31;8422324;34;20269;-76
2022/01/08 08:16:04;;;;;;;41.92;21.67;;;;;;;0.02;84.51;99959.53;8414818;34;21072;-75
2022/01/08 08:21:07;;;;;;;53.95;22.35;;;;;;;0.17;84.50;99960.66;8415944;34;20279;-75
2022/01/08 08:26:12;;;;;;;39.30;20.42;;;;;;;0.02;85.05;99964.81;8461547;34;20462;-75
2022/01/08 08:31:20;;;;;;;42.20;18.85;;;;;;;0.10;84.83;99969.75;8423164;34;20157;-76
2022/01/08 08:36:23;;;;;;;44.45;21.90;;;;;;;0.16;83.73;99975.66;8432085;34;20958;-75
2022/01/08 08:41:27;;;;;;;37.35;17.67;;;;;;;-0.11;83.79;99977.72;8429592;34;20150;-75
2022/01/08 08:46:30;;;;;;;30.40;15.98;;;;;;;-0.37;85.35;99975.31;8457193;34;20522;-76
2022/01/08 08:51:33;;;;;;;46.30;19.60;;;;;;;-0.20;84.72;99970.16;8468220;34;21015;-75
2022/01/08 08:56:39;;;;;;;33.78;17.05;;;;;;;-0.01;84.14;99972.03;8471127;33;20998;-76
2022/01/08 09:01:43;;;;;;;38.67;17.92;;;;;;;-0.28;85.07;99970.50;8465667;34;20705;-75
2022/01/08 09:06:46;;;;;;;39.50;18.10;;;;;;;-0.24;85.04;99978.31;8441264;34;20189;-75
2022/01/08 09:11:51;;;;;;;42.97;18.93;;;;;;;-0.26;85.58;99980.16;8451238;28;21017;-76
2022/01/08 09:17:00;;;;;;;37.47;16.33;;;;;;;-0.31;84.92;100001.44;8408138;34;20160;-76
2022/01/08 09:22:04;;;;;;;45.03;20.27;;;;;;;-0.36;85.51;99966.47;8408808;34;20285;-76
2022/01/08 09:27:10;;;;;;;42.43;18.50;;;;;;;-0.17;84.71;99969.19;8406499;34;20446;-76
2022/01/08 09:32:13;;;;;;;44.47;19.07;;;;;;;-0.07;84.78;99959.94;8405212;34;20718;-76
2022/01/08 09:37:18;;;;;;;51.87;22.57;;;;;;;0.15;84.29;99955.41;8406013;34;20430;-76
2022/01/08 09:42:22;;;;;;;30.77;17.02;;;;;;;0.30;83.19;99948.59;8399786;34;20150;-76
2022/01/08 09:47:25;;;;;;;55.80;23.35;;;;;;;0.32;83.56;99941.44;8401546;34;20476;-77
2022/01/08 09:52:29;;;;;;;50.15;22.15;;;;;;;-0.05;83.84;99947.53;8403776;34;20467;-76
2022/01/08 09:57:34;;;;;;;57.85;26.92;;;;;;;0.39;83.75;99949.97;8411417;34;20523;-76
2022/01/08 10:02:37;;;;;;;60.92;26.60;;;;;;;0.48;83.42;99941.59;8411790;34;20310;-76
2022/01/08 10:07:40;;;;;;;46.05;21.05;;;;;;;0.39;83.00;99942.03;8411770;34;20422;-76
2022/01/08 10:12:51;;;;;;;48.03;21.15;;;;;;;0.26;83.51;99947.00;8414176;34;20488;-76
2022/01/08 10:17:54;;;;;;;63.95;29.13;;;;;;;0.60;82.84;99940.16;8423858;34;21088;-76
2022/01/08 10:23:16;;;;;;;68.65;29.02;;;;;;;0.64;82.66;99936.47;8363916;34;20438;-76
2022/01/08 10:28:34;;;;;;;67.88;27.85;;;;;;;0.73;82.37;99940.47;8359992;34;20491;-76
2022/01/08 10:33:37;;;;;;;63.92;29.60;;;;;;;0.64;82.97;99935.63;8356834;34;20429;-76
2022/01/08 10:38:40;;;;;;;60.50;27.80;;;;;;;0.30;84.09;99931.88;8353150;34;20553;-76
2022/01/08 10:43:45;;;;;;;65.80;29.17;;;;;;;0.70;83.34;99920.31;8355288;34;20481;-76
2022/01/08 10:48:51;;;;;;;55.97;26.42;;;;;;;0.31;83.34;99920.41;8355823;34;20640;-77
2022/01/08 10:54:09;;;;;;;46.33;19.23;;;;;;;0.13;83.81;99907.09;8355207;34;21079;-77
2022/01/08 10:59:20;;;;;;;54.22;25.05;;;;;;;0.79;82.45;99895.22;8353114;34;20236;-77
2022/01/08 11:04:43;;;;;;;48.83;20.35;;;;;;;0.67;82.82;99878.16;8351586;34;20175;-76
2022/01/08 11:09:49;;;;;;;55.25;20.42;;;;;;;0.42;83.44;99867.91;8352504;34;20523;-77
2022/01/08 11:15:22;;;;;;;52.95;24.00;;;;;;;0.63;83.46;99855.44;8353648;34;20523;-76
2022/01/08 11:20:30;;;;;;;56.50;24.67;;;;;;;0.61;83.66;99859.97;8352688;34;20484;-76
2022/01/08 11:25:36;;;;;;;47.60;20.33;;;;;;;0.77;82.92;99844.22;8351786;34;20187;-75
2022/01/08 11:30:42;;;;;;;46.55;19.95;;;;;;;0.94;82.54;99830.16;8347887;34;20269;-76
2022/01/08 11:35:48;;;;;;;42.38;14.88;;;;;;;0.81;82.70;99833.41;8344820;34;20531;-75
2022/01/08 11:40:54;;;;;;;51.22;23.35;;;;;;;0.94;82.67;99816.94;8349118;34;20542;-76
2022/01/08 11:46:02;;;;;;;49.75;22.58;;;;;;;1.32;82.33;99799.09;8355196;34;20515;-76
2022/01/08 11:51:07;;;;;;;50.60;25.60;;;;;;;1.39;82.15;99797.81;8367740;34;20437;-76
2022/01/08 11:56:25;;;;;;;54.17;25.73;;;;;;;1.20;82.06;99802.38;8369749;34;20143;-76
2022/01/08 12:01:29;;;;;;;45.20;22.42;;;;;;;0.89;82.89;99805.72;8366209;34;20234;-76
2022/01/08 12:06:37;;;;;;;45.70;19.80;;;;;;;0.70;83.34;99795.22;8357955;34;20527;-77
2022/01/08 12:12:00;;;;;;;46.78;21.30;;;;;;;1.02;82.26;99772.44;8358448;34;21155;-77
2022/01/08 12:17:16;;;;;;;30.25;13.93;;;;;;;0.90;82.11;99773.91;8304441;34;20457;-76
2022/01/08 12:22:36;;;;;;;38.03;15.20;;;;;;;1.26;81.48;99754.41;8303733;34;20147;-77
2022/01/08 12:27:45;;;;;;;34.35;15.95;;;;;;;1.56;80.08;99749.28;8302523;34;20247;-77
2022/01/08 12:32:52;;;;;;;31.20;13.70;;;;;;;1.86;79.31;99733.53;8307324;34;20192;-75
2022/01/08 12:37:59;;;;;;;21.08;9.00;;;;;;;1.81;78.83;99735.59;8312731;34;20453;-77
2022/01/08 12:43:21;;;;;;;28.25;13.07;;;;;;;1.76;78.15;99721.75;8312067;34;20805;-77
2022/01/08 12:48:26;;;;;;;28.83;12.32;;;;;;;2.25;78.11;99707.50;8307223;34;20469;-76
2022/01/08 12:53:30;;;;;;;20.05;9.82;;;;;;;2.32;78.25;99690.34;8303253;34;20242;-77
2022/01/08 12:58:37;;;;;;;22.23;9.82;;;;;;;2.37;77.39;99678.50;8303248;34;20543;-75
2022/01/08 13:03:44;;;;;;;20.05;10.23;;;;;;;2.67;76.16;99648.53;8329517;34;20622;-76
2022/01/08 13:08:51;;;;;;;23.20;10.95;;;;;;;2.15;77.58;99655.06;8411707;34;20524;-76
2022/01/08 13:13:57;;;;;;;23.05;9.82;;;;;;;1.63;78.66;99659.81;8411045;34;20151;-77
2022/01/08 13:19:06;;;;;;;21.35;10.43;;;;;;;2.21;77.96;99616.75;8410395;34;21093;-76
2022/01/08 13:24:16;;;;;;;20.40;10.43;;;;;;;2.33;76.86;99600.13;8411012;34;20425;-76
2022/01/08 13:29:26;;;;;;;23.58;10.13;;;;;;;2.55;76.00;99594.44;8401140;34;21072;-77
2022/01/08 13:34:34;;;;;;;18.88;9.82;;;;;;;2.42;75.79;99582.84;8400956;34;21099;-76
2022/01/08 13:39:42;;;;;;;20.50;9.48;;;;;;;2.35;75.71;99573.53;8399652;34;20146;-76
2022/01/08 13:44:50;;;;;;;16.77;8.55;;;;;;;2.37;74.40;99569.84;8398704;34;20457;-75
2022/01/08 13:49:57;;;;;;;17.85;6.97;;;;;;;1.98;73.29;99564.28;8401787;34;20237;-75
2022/01/08 13:55:21;;;;;;;21.02;8.95;;;;;;;2.48;72.80;99549.78;8402798;34;20939;-76
2022/01/08 14:00:29;;;;;;;13.73;7.07;;;;;;;2.02;72.17;99540.13;8399659;34;20422;-76
2022/01/08 14:05:34;;;;;;;17.17;7.50;;;;;;;2.23;72.16;99519.47;8399020;34;20438;-76
2022/01/08 14:10:41;;;;;;;18.80;9.13;;;;;;;2.09;72.32;99511.50;8401487;34;20174;-76
2022/01/08 14:15:46;;;;;;;15.55;6.70;;;;;;;2.08;72.55;99502.69;8405825;34;20289;-75
2022/01/08 14:20:52;;;;;;;10.85;5.80;;;;;;;1.99;71.63;99490.00;8414486;34;20487;-76
2022/01/08 14:25:56;;;;;;;9.02;5.32;;;;;;;2.06;71.21;99488.69;8413574;34;20542;-76
2022/01/08 14:31:15;;;;;;;12.80;6.07;;;;;;;2.09;70.89;99480.56;8418609;34;20146;-76
2022/01/08 14:36:19;;;;;;;11.52;6.43;;;;;;;2.08;70.88;99462.09;8418861;34;20643;-76
2022/01/08 14:41:32;;;;;;;5.40;3.50;;;;;;;2.02;70.92;99450.06;8440862;34;20555;-77
2022/01/08 14:46:35;;;;;;;9.30;4.60;;;;;;;2.09;70.41;99432.88;8435061;34;20484;-76
2022/01/08 14:51:40;;;;;;;8.20;3.78;;;;;;;1.69;70.73;99419.38;8421524;34;20454;-77
2022/01/08 14:56:45;;;;;;;6.25;3.67;;;;;;;1.87;70.75;99414.78;8419124;34;20190;-77
2022/01/08 15:01:48;;;;;;;7.28;3.75;;;;;;;2.08;70.69;99390.56;8420287;34;20454;-77
2022/01/08 15:06:53;;;;;;;7.28;4.05;;;;;;;2.01;70.67;99383.97;8416901;34;20458;-77
2022/01/08 15:11:56;;;;;;;9.18;4.10;;;;;;;2.02;70.64;99372.41;8443690;28;20151;-75
2022/01/08 15:16:59;;;;;;;5.05;3.75;;;;;;;2.05;70.41;99370.41;8515748;33;20471;-74
2022/01/08 15:22:04;;;;;;;9.75;3.33;;;;;;;1.77;70.33;99352.72;8513228;33;20917;-76
2022/01/08 15:27:08;;;;;;;6.90;2.97;;;;;;;1.65;70.90;99346.38;8469949;33;20426;-75
2022/01/08 15:32:11;;;;;;;6.95;4.03;;;;;;;1.73;70.59;99330.88;8458713;34;20157;-73
2022/01/08 15:37:15;;;;;;;5.47;3.42;;;;;;;1.71;70.33;99318.69;8471532;33;20177;-74
2022/01/08 15:42:18;;;;;;;7.68;3.97;;;;;;;1.52;70.15;99318.94;8470217;34;21058;-75
2022/01/08 15:47:21;;;;;;;5.25;3.92;;;;;;;1.61;70.28;99310.44;8471190;33;20996;-75
2022/01/08 15:52:26;;;;;;;7.05;4.18;;;;;;;1.81;69.13;99285.41;8470967;33;20531;-75
2022/01/08 15:57:29;;;;;;;5.88;3.08;;;;;;;1.68;69.54;99285.31;8469160;33;20247;-75
2022/01/08 16:02:32;;;;;;;6.18;3.60;;;;;;;1.78;68.66;99277.63;8468319;33;20200;-75
2022/01/08 16:07:37;;;;;;;5.82;3.22;;;;;;;1.68;68.46;99266.78;8468908;33;20410;-74
2022/01/08 16:12:40;;;;;;;5.15;3.28;;;;;;;1.79;68.12;99239.63;8468649;33;20220;-74
2022/01/08 16:17:43;;;;;;;5.28;2.80;;;;;;;1.69;67.60;99219.97;8482583;33;20245;-74
2022/01/08 16:22:47;;;;;;;4.68;3.70;;;;;;;1.73;68.10;99205.59;8477582;34;20149;-77
2022/01/08 16:27:50;;;;;;;3.40;2.45;;;;;;;1.77;67.71;99190.38;8487725;33;20593;-75
2022/01/08 16:32:53;;;;;;;3.53;3.08;;;;;;;1.75;67.90;99181.66;8489215;33;20451;-76
2022/01/08 16:37:58;;;;;;;5.57;3.40;;;;;;;1.75;67.27;99160.47;8482775;33;20461;-74
2022/01/08 16:43:01;;;;;;;8.20;3.55;;;;;;;1.73;67.76;99150.00;8488576;34;20190;-74
2022/01/08 16:48:05;;;;;;;4.43;2.55;;;;;;;1.44;68.55;99135.97;8472714;33;20742;-74
2022/01/08 16:53:12;;;;;;;5.07;3.55;;;;;;;1.62;68.79;99123.34;8484804;33;20529;-74
2022/01/08 16:58:15;;;;;;;3.30;2.53;;;;;;;1.52;68.91;99120.47;8484147;33;20534;-75
2022/01/08 17:03:18;;;;;;;4.15;3.13;;;;;;;1.58;68.96;99101.53;8488600;33;20430;-74
2022/01/08 17:08:23;;;;;;;3.47;3.17;;;;;;;1.45;69.49;99088.25;8484316;33;20825;-75
2022/01/08 17:13:29;;;;;;;5.97;3.60;;;;;;;1.65;69.31;99070.22;8483931;33;20893;-75
2022/01/08 17:18:32;;;;;;;5.18;2.72;;;;;;;1.44;70.24;99057.44;8483696;33;20535;-75
2022/01/08 17:23:37;;;;;;;4.97;3.55;;;;;;;1.23;72.31;99040.28;8479796;33;20513;-75
2022/01/08 17:28:40;;;;;;;5.32;3.30;;;;;;;1.08;74.71;99028.03;8481874;33;20599;-75
2022/01/08 17:33:43;;;;;;;5.10;4.20;;;;;;;0.85;76.64;99003.91;8471833;33;20412;-74
2022/01/08 17:38:49;;;;;;;7.00;3.85;;;;;;;0.82;77.40;98994.38;8469069;33;21033;-75
2022/01/08 17:43:52;;;;;;;5.75;3.25;;;;;;;0.73;78.52;98984.34;8468305;33;20424;-74
2022/01/08 17:48:55;;;;;;;8.75;3.65;;;;;;;0.73;78.86;98965.00;8466087;33;20165;-74
2022/01/08 17:54:00;;;;;;;6.30;3.35;;;;;;;0.69;79.53;98952.94;8467362;33;20328;-76
2022/01/08 17:59:03;;;;;;;7.13;3.35;;;;;;;0.61;80.17;98933.13;8469174;33;20137;-75
2022/01/08 18:04:06;;;;;;;3.70;2.70;;;;;;;0.51;81.27;98926.72;8468990;33;20563;-75
2022/01/08 18:09:11;;;;;;;7.72;3.78;;;;;;;0.46;81.67;98925.31;8468316;33;20138;-75
2022/01/08 18:14:14;;;;;;;7.20;4.75;;;;;;;0.45;81.32;98886.63;8472381;34;20512;-75
2022/01/08 18:19:17;;;;;;;7.93;5.07;;;;;;;0.63;81.37;98872.22;8477425;33;20520;-74
2022/01/08 18:24:22;;;;;;;5.93;4.07;;;;;;;0.69;81.08;98860.44;8468479;33;20467;-75
2022/01/08 18:29:25;;;;;;;8.93;4.07;;;;;;;0.48;80.88;98845.00;8466453;33;20587;-75
2022/01/08 18:34:28;;;;;;;8.02;4.63;;;;;;;0.58;80.34;98824.97;8463991;33;20621;-74
2022/01/08 18:39:34;;;;;;;5.10;3.67;;;;;;;0.70;79.65;98804.00;8460339;33;20484;-75
2022/01/08 18:44:37;;;;;;;5.00;3.63;;;;;;;0.88;79.29;98802.78;8460433;34;20236;-75
2022/01/08 18:49:41;;;;;;;7.43;4.57;;;;;;;0.98;78.99;98772.13;8460579;33;20253;-75
2022/01/08 18:54:47;;;;;;;4.13;3.00;;;;;;;0.83;78.48;98752.03;8461367;33;20514;-75
2022/01/08 18:59:50;;;;;;;5.30;3.58;;;;;;;1.14;77.75;98748.13;8461853;33;20161;-75
2022/01/08 19:04:53;;;;;;;3.20;2.65;;;;;;;1.09;77.56;98728.25;8465038;33;20332;-75
2022/01/08 19:09:57;;;;;;;4.53;3.63;;;;;;;1.24;76.88;98711.34;8471665;33;20271;-75
2022/01/08 19:15:00;;;;;;;5.28;4.10;;;;;;;0.99;77.14;98706.91;8476823;33;20458;-75
2022/01/08 19:20:06;;;;;;;4.43;2.70;;;;;;;1.25;76.69;98681.28;8480398;33;20460;-74
2022/01/08 19:25:12;;;;;;;5.82;3.67;;;;;;;1.35;75.83;98662.97;8470943;33;20943;-74
2022/01/08 19:30:15;;;;;;;4.15;3.20;;;;;;;1.36;75.23;98644.34;8493265;33;20597;-75
2022/01/08 19:35:18;;;;;;;2.97;2.65;;;;;;;1.37;74.89;98648.69;8501840;33;20578;-74
2022/01/08 19:40:23;;;;;;;3.55;2.78;;;;;;;1.43;74.47;98626.25;8480848;33;20499;-76
2022/01/08 19:45:26;;;;;;;3.17;2.85;;;;;;;1.57;74.54;98612.03;8464315;33;20228;-75
2022/01/08 19:50:29;;;;;;;3.78;2.63;;;;;;;1.60;74.37;98593.28;8466405;33;20227;-75
2022/01/08 19:55:33;;;;;;;3.72;2.25;;;;;;;1.52;74.52;98577.09;8465980;33;20663;-75
2022/01/08 20:00:36;;;;;;;2.95;2.67;;;;;;;1.68;74.20;98557.34;8465831;33;20542;-75
2022/01/08 20:05:40;;;;;;;3.38;2.92;;;;;;;1.68;73.93;98548.56;8469237;33;20491;-74
2022/01/08 20:10:44;;;;;;;3.65;2.90;;;;;;;1.69;73.73;98535.19;8473877;33;20146;-75
2022/01/08 20:15:49;;;;;;;3.42;3.13;;;;;;;1.87;73.26;98519.78;8475166;33;20534;-76
2022/01/08 20:20:52;;;;;;;2.70;2.17;;;;;;;1.80;73.26;98521.19;8473576;33;20662;-74
2022/01/08 20:25:56;;;;;;;2.80;2.50;;;;;;;1.99;73.25;98493.31;8483739;33;20677;-76
2022/01/08 20:30:59;;;;;;;2.67;2.42;;;;;;;1.81;73.17;98479.66;8478988;34;20769;-75
2022/01/08 20:36:03;;;;;;;3.13;2.22;;;;;;;1.91;72.89;98465.63;8489980;33;21124;-75
2022/01/08 20:41:07;;;;;;;2.78;2.58;;;;;;;2.02;72.72;98448.06;8473205;33;20303;-75
2022/01/08 20:46:12;;;;;;;1.83;1.73;;;;;;;1.88;72.79;98427.94;8470750;33;20571;-75
2022/01/08 20:51:16;;;;;;;2.38;2.00;;;;;;;1.88;73.54;98426.13;8470943;33;20439;-75
2022/01/08 20:56:20;;;;;;;2.58;2.25;;;;;;;1.83;73.36;98404.47;8463191;34;20406;-75
2022/01/08 21:01:23;;;;;;;2.88;2.50;;;;;;;1.93;73.02;98400.16;8466751;33;20595;-75
2022/01/08 21:06:26;;;;;;;2.90;2.30;;;;;;;1.75;73.54;98388.31;8470758;33;20453;-75
2022/01/08 21:11:31;;;;;;;1.98;1.88;;;;;;;1.82;73.31;98371.00;8465813;33;20555;-75
2022/01/08 21:16:34;;;;;;;2.95;2.75;;;;;;;1.98;73.50;98360.09;8462420;33;20160;-75
2022/01/08 21:21:38;;;;;;;2.83;2.47;;;;;;;1.87;73.59;98331.78;8461181;33;20926;-77
2022/01/08 21:26:42;;;;;;;2.97;2.67;;;;;;;1.86;74.13;98316.84;8460250;33;20998;-76
2022/01/08 21:31:45;;;;;;;3.75;3.00;;;;;;;1.75;74.35;98308.91;8463035;34;20244;-76
2022/01/08 21:36:51;;;;;;;4.43;3.30;;;;;;;1.90;74.50;98289.19;8464871;33;20530;-76
2022/01/08 21:41:55;;;;;;;3.50;3.20;;;;;;;1.99;74.22;98268.25;8465721;33;20550;-76
2022/01/08 21:47:03;;;;;;;3.70;2.88;;;;;;;1.81;74.52;98263.44;8468070;33;20435;-75
2022/01/08 21:52:07;;;;;;;3.20;2.97;;;;;;;1.86;74.43;98253.31;8462974;33;20544;-77
2022/01/08 21:57:16;;;;;;;4.65;3.95;;;;;;;1.95;74.58;98243.81;8470369;33;20209;-76
2022/01/08 22:02:22;;;;;;;3.65;3.35;;;;;;;1.84;74.53;98227.94;8464035;33;20138;-77
2022/01/08 22:07:25;;;;;;;4.55;3.25;;;;;;;1.94;74.42;98223.59;8459898;34;20209;-75
2022/01/08 22:12:30;;;;;;;3.20;2.95;;;;;;;1.88;74.49;98208.19;8463426;33;20438;-76
2022/01/08 22:17:33;;;;;;;3.88;3.38;;;;;;;1.91;74.30;98195.56;8462764;34;20150;-74
2022/01/08 22:22:37;;;;;;;4.07;3.20;;;;;;;1.79;74.42;98183.31;8463071;33;20566;-76
2022/01/08 22:27:41;;;;;;;4.55;3.97;;;;;;;1.86;74.54;98159.81;8463156;33;20208;-77
2022/01/08 22:32:45;;;;;;;4.85;4.45;;;;;;;1.94;74.37;98160.03;8462287;33;20430;-75
2022/01/08 22:37:48;;;;;;;3.63;3.33;;;;;;;1.91;74.25;98157.66;8464946;33;20148;-77
2022/01/08 22:42:52;;;;;;;4.10;3.70;;;;;;;1.87;74.74;98158.88;8471815;33;20141;-75
2022/01/08 22:47:55;;;;;;;3.65;3.35;;;;;;;1.81;74.46;98136.38;8469844;33;20428;-76
2022/01/08 22:52:59;;;;;;;3.75;3.40;;;;;;;2.05;73.92;98130.06;8470625;33;20860;-75
2022/01/08 22:58:03;;;;;;;3.97;3.67;;;;;;;2.00;73.95;98119.00;8469777;33;20453;-76
2022/01/08 23:03:06;;;;;;;3.85;3.55;;;;;;;1.95;74.60;98111.44;8461056;34;20490;-75
2022/01/08 23:08:10;;;;;;;3.50;3.17;;;;;;;1.75;75.64;98091.03;8463200;33;20471;-75
2022/01/08 23:13:15;;;;;;;3.38;3.08;;;;;;;1.62;76.94;98094.69;8461692;34;20441;-75
2022/01/08 23:18:18;;;;;;;4.03;3.63;;;;;;;1.52;78.07;98083.16;8468480;34;20255;-76
2022/01/08 23:23:21;;;;;;;4.50;3.97;;;;;;;1.56;78.59;98073.97;8468825;33;20244;-77
2022/01/08 23:28:26;;;;;;;3.55;3.10;;;;;;;1.36;80.25;98070.28;8463759;34;21296;-77
2022/01/08 23:33:29;;;;;;;4.88;4.00;;;;;;;1.32;80.70;98063.59;8462093;34;20156;-75
2022/01/08 23:38:32;;;;;;;4.00;3.70;;;;;;;1.18;81.64;98061.19;8465046;33;20176;-75
2022/01/08 23:43:36;;;;;;;5.05;4.07;;;;;;;1.32;81.24;98042.44;8471535;33;20149;-75
2022/01/08 23:48:39;;;;;;;4.35;3.95;;;;;;;1.35;81.51;98028.13;8481089;33;20431;-75
2022/01/08 23:53:42;;;;;;;4.05;3.67;;;;;;;1.35;81.89;98017.53;8485954;33;20890;-76
2022/01/08 23:58:47;;;;;;;3.63;3.33;;;;;;;1.35;81.91;98010.44;8485700;33;20490;-76
